Time,TemperatureF,DewpointF,PressureIn,WindDirection,WindDirectionDegrees,WindSpeedMPH,WindSpeedGustMPH,Humidity,HourlyPrecipIn,Conditions,Clouds,dailyrainin,SoftwareType,DateUTC
2013-04-09 00:00:00,37.0,36.0,30.04,NE,45,1.0,5.0,96,0.00,,,-99.99,WeatherLink 5.4,2013-04-09 04:00:00,
2013-04-09 00:10:00,37.0,36.2,30.04,NE,45,2.0,5.0,97,0.00,,,-99.99,WeatherLink 5.4,2013-04-09 04:10:00,
2013-04-09 00:20:00,37.0,36.2,30.04,NE,45,3.0,5.0,97,0.00,,,-99.99,WeatherLink 5.4,2013-04-09 04:20:00,
2013-04-09 00:30:00,37.0,36.2,30.04,NE,45,3.0,6.0,97,0.00,,,-99.99,WeatherLink 5.4,2013-04-09 04:30:00,
2013-04-09 00:40:00,37.1,36.3,30.05,East,90,3.0,5.0,97,0.00,,,-99.99,WeatherLink 5.4,2013-04-09 04:40:00,
2013-04-09 00:50:00,37.1,36.3,30.05,East,90,3.0,6.0,97,0.00,,,-99.99,WeatherLink 5.4,2013-04-09 04:50:00,
2013-04-09 01:00:00,37.1,36.3,30.06,SSE,157,4.0,7.0,97,0.00,,,-99.99,WeatherLink 5.4,2013-04-09 05:00:00,
2013-04-09 01:10:00,37.1,36.3,30.06,SSE,157,4.0,6.0,97,0.00,,,-99.99,WeatherLink 5.4,2013-04-09 05:10:00,
2013-04-09 01:20:00,37.3,36.5,30.07,SSE,157,2.0,6.0,97,0.00,,,-99.99,WeatherLink 5.4,2013-04-09 05:20:00,
2013-04-09 01:30:00,37.2,36.4,30.07,SSE,157,1.0,5.0,97,0.00,,,-99.99,WeatherLink 5.4,2013-04-09 05:30:00,
2013-04-09 01:40:00,37.2,36.4,30.07,East,90,4.0,6.0,97,0.00,,,-99.99,WeatherLink 5.4,2013-04-09 05:40:00,
2013-04-09 01:50:00,37.3,36.5,30.07,East,90,4.0,6.0,97,0.00,,,-99.99,WeatherLink 5.4,2013-04-09 05:50:00,
2013-04-09 02:00:00,37.3,36.5,30.07,East,90,5.0,7.0,97,0.00,,,-99.99,WeatherLink 5.4,2013-04-09 06:00:00,
2013-04-09 02:10:00,37.5,36.7,30.07,East,90,5.0,7.0,97,0.00,,,-99.99,WeatherLink 5.4,2013-04-09 06:10:00,
2013-04-09 02:20:00,37.9,37.1,30.08,East,90,6.0,8.0,97,0.00,,,-99.99,WeatherLink 5.4,2013-04-09 06:20:00,
2013-04-09 02:30:00,38.1,37.3,30.07,East,90,7.0,10.0,97,0.00,,,-99.99,WeatherLink 5.4,2013-04-09 06:30:00,
2013-04-09 02:40:00,38.2,37.4,30.07,East,90,6.0,10.0,97,0.00,,,-99.99,WeatherLink 5.4,2013-04-09 06:40:00,
2013-04-09 02:50:00,38.4,37.6,30.08,East,90,5.0,8.0,97,0.00,,,-99.99,WeatherLink 5.4,2013-04-09 06:50:00,
2013-04-09 03:00:00,38.5,37.7,30.07,ESE,112,5.0,7.0,97,0.00,,,-99.99,WeatherLink 5.4,2013-04-09 07:00:00,
2013-04-09 03:10:00,38.6,37.8,30.07,ESE,112,5.0,8.0,97,0.00,,,-99.99,WeatherLink 5.4,2013-04-09 07:10:00,
2013-04-09 03:20:00,38.8,38.0,30.06,East,90,7.0,10.0,97,0.00,,,-99.99,WeatherLink 5.4,2013-04-09 07:20:00,
2013-04-09 03:30:00,38.9,38.1,30.06,East,90,6.0,9.0,97,0.00,,,-99.99,WeatherLink 5.4,2013-04-09 07:30:00,
2013-04-09 03:40:00,38.9,38.1,30.06,East,90,8.0,11.0,97,0.00,,,-99.99,WeatherLink 5.4,2013-04-09 07:40:00,
2013-04-09 03:50:00,38.9,38.1,30.07,ESE,112,6.0,9.0,97,0.00,,,-99.99,WeatherLink 5.4,2013-04-09 07:50:00,
2013-04-09 04:00:00,38.9,38.1,30.07,East,90,5.0,8.0,97,0.00,,,-99.99,WeatherLink 5.4,2013-04-09 08:00:00,
2013-04-09 04:10:00,38.9,38.1,30.06,East,90,6.0,10.0,97,0.00,,,-99.99,WeatherLink 5.4,2013-04-09 08:10:00,
2013-04-09 04:20:00,38.8,38.0,30.06,East,90,8.0,13.0,97,0.00,,,-99.99,WeatherLink 5.4,2013-04-09 08:20:00,
2013-04-09 04:30:00,38.8,38.0,30.06,East,90,11.0,15.0,97,0.00,,,-99.99,WeatherLink 5.4,2013-04-09 08:30:00,
2013-04-09 04:40:00,38.8,38.0,30.07,East,90,9.0,15.0,97,0.00,,,-99.99,WeatherLink 5.4,2013-04-09 08:40:00,
2013-04-09 04:50:00,38.8,38.0,30.08,ESE,112,7.0,10.0,97,0.00,,,-99.99,WeatherLink 5.4,2013-04-09 08:50:00,
2013-04-09 05:00:00,38.9,38.1,30.08,ESE,112,6.0,10.0,97,0.00,,,-99.99,WeatherLink 5.4,2013-04-09 09:00:00,
2013-04-09 05:10:00,38.9,38.1,30.08,ESE,112,6.0,10.0,97,0.00,,,-99.99,WeatherLink 5.4,2013-04-09 09:10:00,
2013-04-09 05:20:00,38.9,38.1,30.08,ESE,112,6.0,9.0,97,0.00,,,-99.99,WeatherLink 5.4,2013-04-09 09:20:00,
2013-04-09 05:30:00,39.0,38.2,30.08,East,90,7.0,10.0,97,0.00,,,-99.99,WeatherLink 5.4,2013-04-09 09:30:00,
2013-04-09 05:40:00,39.0,38.2,30.08,East,90,7.0,11.0,97,0.00,,,-99.99,WeatherLink 5.4,2013-04-09 09:40:00,
2013-04-09 05:50:00,39.1,38.3,30.08,ESE,112,8.0,12.0,97,0.00,,,-99.99,WeatherLink 5.4,2013-04-09 09:50:00,
2013-04-09 06:00:00,39.1,38.3,30.08,ESE,112,8.0,13.0,97,0.00,,,-99.99,WeatherLink 5.4,2013-04-09 10:00:00,
2013-04-09 06:10:00,39.1,38.3,30.07,ESE,112,9.0,13.0,97,0.00,,,-99.99,WeatherLink 5.4,2013-04-09 10:10:00,
2013-04-09 06:20:00,39.0,38.2,30.07,ESE,112,9.0,15.0,97,0.00,,,-99.99,WeatherLink 5.4,2013-04-09 10:20:00,
2013-04-09 06:30:00,39.1,38.3,30.07,ESE,112,9.0,14.0,97,0.00,,,-99.99,WeatherLink 5.4,2013-04-09 10:30:00,
2013-04-09 06:40:00,39.1,38.3,30.06,East,90,10.0,15.0,97,0.00,,,-99.99,WeatherLink 5.4,2013-04-09 10:40:00,
2013-04-09 06:50:00,39.1,38.3,30.06,East,90,12.0,18.0,97,0.00,,,-99.99,WeatherLink 5.4,2013-04-09 10:50:00,
2013-04-09 07:00:00,39.2,38.7,30.06,East,90,12.0,16.0,98,0.00,,,-99.99,WeatherLink 5.4,2013-04-09 11:00:00,
2013-04-09 07:10:00,39.3,38.8,30.05,East,90,13.0,16.0,98,0.00,,,-99.99,WeatherLink 5.4,2013-04-09 11:10:00,
2013-04-09 07:20:00,39.5,39.0,30.06,East,90,13.0,19.0,98,0.00,,,-99.99,WeatherLink 5.4,2013-04-09 11:20:00,
2013-04-09 07:30:00,39.7,38.9,30.06,East,90,12.0,18.0,97,0.00,,,-99.99,WeatherLink 5.4,2013-04-09 11:30:00,
2013-04-09 07:40:00,39.9,39.4,30.05,East,90,14.0,21.0,98,0.00,,,-99.99,WeatherLink 5.4,2013-04-09 11:40:00,
2013-04-09 07:50:00,40.1,39.6,30.07,East,90,13.0,20.0,98,0.00,,,-99.99,WeatherLink 5.4,2013-04-09 11:50:00,
2013-04-09 08:00:00,40.2,39.7,30.07,East,90,9.0,14.0,98,0.00,,,-99.99,WeatherLink 5.4,2013-04-09 12:00:00,
2013-04-09 08:10:00,40.3,39.8,30.07,East,90,10.0,15.0,98,0.00,,,-99.99,WeatherLink 5.4,2013-04-09 12:10:00,
2013-04-09 08:20:00,40.3,39.8,30.07,East,90,10.0,14.0,98,0.00,,,-99.99,WeatherLink 5.4,2013-04-09 12:20:00,
2013-04-09 08:30:00,40.5,40.0,30.05,East,90,11.0,16.0,98,0.00,,,-99.99,WeatherLink 5.4,2013-04-09 12:30:00,
2013-04-09 08:40:00,40.7,40.2,30.06,East,90,13.0,16.0,98,0.00,,,-99.99,WeatherLink 5.4,2013-04-09 12:40:00,
2013-04-09 08:50:00,40.9,40.4,30.05,East,90,13.0,19.0,98,0.00,,,-99.99,WeatherLink 5.4,2013-04-09 12:50:00,
2013-04-09 09:00:00,41.0,40.5,30.04,ESE,112,13.0,19.0,98,0.00,,,-99.99,WeatherLink 5.4,2013-04-09 13:00:00,
2013-04-09 09:10:00,41.1,40.6,30.04,East,90,11.0,16.0,98,0.00,,,-99.99,WeatherLink 5.4,2013-04-09 13:10:00,
2013-04-09 09:20:00,41.2,40.7,30.03,East,90,12.0,16.0,98,0.00,,,-99.99,WeatherLink 5.4,2013-04-09 13:20:00,
2013-04-09 09:30:00,41.5,41.0,30.03,East,90,12.0,18.0,98,0.00,,,-99.99,WeatherLink 5.4,2013-04-09 13:30:00,
2013-04-09 09:40:00,41.8,41.3,30.03,East,90,12.0,19.0,98,0.00,,,-99.99,WeatherLink 5.4,2013-04-09 13:40:00,
2013-04-09 09:50:00,42.0,41.5,30.03,East,90,12.0,18.0,98,0.00,,,-99.99,WeatherLink 5.4,2013-04-09 13:50:00,
2013-04-09 10:00:00,41.9,41.4,30.04,East,90,11.0,16.0,98,0.00,,,-99.99,WeatherLink 5.4,2013-04-09 14:00:00,
2013-04-09 10:10:00,41.9,41.4,30.04,ESE,112,9.0,13.0,98,0.00,,,-99.99,WeatherLink 5.4,2013-04-09 14:10:00,
2013-04-09 10:20:00,42.0,41.5,30.05,East,90,8.0,11.0,98,0.01,,,-99.99,WeatherLink 5.4,2013-04-09 14:20:00,
2013-04-09 10:30:00,42.0,41.5,30.05,East,90,8.0,12.0,98,0.05,,,-99.99,WeatherLink 5.4,2013-04-09 14:30:00,
2013-04-09 10:40:00,42.1,41.6,30.02,East,90,12.0,16.0,98,0.09,,,-99.99,WeatherLink 5.4,2013-04-09 14:40:00,
2013-04-09 10:50:00,42.3,41.8,30.03,East,90,12.0,18.0,98,0.09,,,-99.99,WeatherLink 5.4,2013-04-09 14:50:00,
2013-04-09 11:00:00,42.4,41.9,30.05,East,90,9.0,14.0,98,0.11,,,-99.99,WeatherLink 5.4,2013-04-09 15:00:00,
2013-04-09 11:10:00,42.4,41.9,30.03,East,90,11.0,18.0,98,0.12,,,-99.99,WeatherLink 5.4,2013-04-09 15:10:00,
2013-04-09 11:20:00,42.6,42.1,30.00,East,90,16.0,22.0,98,0.11,,,-99.99,WeatherLink 5.4,2013-04-09 15:20:00,
2013-04-09 11:30:00,42.7,42.2,30.02,East,90,15.0,23.0,98,0.07,,,-99.99,WeatherLink 5.4,2013-04-09 15:30:00,
2013-04-09 11:40:00,42.7,42.2,30.05,NNW,337,9.0,16.0,98,0.04,,,-99.99,WeatherLink 5.4,2013-04-09 15:40:00,
2013-04-09 11:50:00,42.5,42.0,30.03,NNE,22,9.0,13.0,98,0.08,,,-99.99,WeatherLink 5.4,2013-04-09 15:50:00,
2013-04-09 12:00:00,42.7,42.2,30.03,NE,45,9.0,18.0,98,0.07,,,-99.99,WeatherLink 5.4,2013-04-09 16:00:00,
2013-04-09 12:10:00,42.8,42.3,30.01,East,90,12.0,20.0,98,0.07,,,-99.99,WeatherLink 5.4,2013-04-09 16:10:00,
2013-04-09 12:20:00,42.7,42.2,30.00,East,90,12.0,19.0,98,0.09,,,-99.99,WeatherLink 5.4,2013-04-09 16:20:00,
2013-04-09 12:30:00,42.8,42.3,29.99,East,90,13.0,19.0,98,0.09,,,-99.99,WeatherLink 5.4,2013-04-09 16:30:00,
2013-04-09 12:40:00,42.7,42.2,29.98,East,90,14.0,20.0,98,0.09,,,-99.99,WeatherLink 5.4,2013-04-09 16:40:00,
2013-04-09 12:50:00,42.7,42.2,29.98,East,90,15.0,22.0,98,0.06,,,-99.99,WeatherLink 5.4,2013-04-09 16:50:00,
2013-04-09 13:00:00,42.9,42.4,29.99,East,90,14.0,22.0,98,0.05,,,-99.99,WeatherLink 5.4,2013-04-09 17:00:00,
2013-04-09 13:10:00,43.0,42.5,30.01,East,90,10.0,19.0,98,0.06,,,-99.99,WeatherLink 5.4,2013-04-09 17:10:00,
2013-04-09 13:20:00,42.6,42.1,30.01,North,0,7.0,10.0,98,0.11,,,-99.99,WeatherLink 5.4,2013-04-09 17:20:00,
2013-04-09 13:30:00,42.4,41.9,29.98,NNE,22,9.0,14.0,98,0.15,,,-99.99,WeatherLink 5.4,2013-04-09 17:30:00,
2013-04-09 13:40:00,42.5,42.0,29.97,East,90,10.0,18.0,98,0.15,,,-99.99,WeatherLink 5.4,2013-04-09 17:40:00,
2013-04-09 13:50:00,42.7,42.2,29.96,East,90,13.0,22.0,98,0.14,,,-99.99,WeatherLink 5.4,2013-04-09 17:50:00,
2013-04-09 14:00:00,42.8,42.3,29.94,East,90,17.0,24.0,98,0.14,,,-99.99,WeatherLink 5.4,2013-04-09 18:00:00,
2013-04-09 14:10:00,42.8,42.3,29.94,East,90,23.0,28.0,98,0.12,,,-99.99,WeatherLink 5.4,2013-04-09 18:10:00,
2013-04-09 14:20:00,42.9,42.4,29.93,East,90,22.0,29.0,98,0.05,,,-99.99,WeatherLink 5.4,2013-04-09 18:20:00,
2013-04-09 14:30:00,43.1,42.6,29.94,East,90,16.0,22.0,98,0.01,,,-99.99,WeatherLink 5.4,2013-04-09 18:30:00,
2013-04-09 14:40:00,43.2,42.7,29.93,East,90,17.0,23.0,98,0.00,,,-99.99,WeatherLink 5.4,2013-04-09 18:40:00,
2013-04-09 14:50:00,43.4,42.9,29.94,East,90,15.0,21.0,98,0.00,,,-99.99,WeatherLink 5.4,2013-04-09 18:50:00,
2013-04-09 15:00:00,43.6,43.1,29.93,East,90,17.0,23.0,98,0.00,,,-99.99,WeatherLink 5.4,2013-04-09 19:00:00,
2013-04-09 15:10:00,44.1,43.6,29.92,ESE,112,18.0,23.0,98,0.00,,,-99.99,WeatherLink 5.4,2013-04-09 19:10:00,
2013-04-09 15:20:00,44.7,44.2,29.92,East,90,15.0,22.0,98,0.00,,,-99.99,WeatherLink 5.4,2013-04-09 19:20:00,
2013-04-09 15:30:00,45.7,45.2,29.92,East,90,14.0,22.0,98,0.00,,,-99.99,WeatherLink 5.4,2013-04-09 19:30:00,
2013-04-09 15:40:00,45.7,45.2,29.93,East,90,13.0,19.0,98,0.00,,,-99.99,WeatherLink 5.4,2013-04-09 19:40:00,
2013-04-09 15:50:00,46.0,45.5,29.93,East,90,11.0,21.0,98,0.00,,,-99.99,WeatherLink 5.4,2013-04-09 19:50:00,
2013-04-09 16:00:00,46.2,45.7,29.92,East,90,12.0,18.0,98,0.00,,,-99.99,WeatherLink 5.4,2013-04-09 20:00:00,
2013-04-09 16:10:00,46.7,46.4,29.91,East,90,11.0,16.0,99,0.00,,,-99.99,WeatherLink 5.4,2013-04-09 20:10:00,
2013-04-09 16:20:00,46.6,46.1,29.90,East,90,14.0,19.0,98,0.00,,,-99.99,WeatherLink 5.4,2013-04-09 20:20:00,
2013-04-09 16:30:00,46.8,46.3,29.91,East,90,13.0,19.0,98,0.00,,,-99.99,WeatherLink 5.4,2013-04-09 20:30:00,
2013-04-09 16:40:00,46.5,46.0,29.99,East,90,17.0,48.0,98,0.00,,,-99.99,WeatherLink 5.4,2013-04-09 20:40:00,
2013-04-09 16:50:00,45.8,45.3,29.92,NNE,22,11.0,28.0,98,0.02,,,-99.99,WeatherLink 5.4,2013-04-09 20:50:00,
2013-04-09 17:00:00,45.9,45.4,29.90,East,90,13.0,19.0,98,0.06,,,-99.99,WeatherLink 5.4,2013-04-09 21:00:00,
2013-04-09 17:10:00,46.0,45.5,29.90,ESE,112,12.0,19.0,98,0.22,,,-99.99,WeatherLink 5.4,2013-04-09 21:10:00,
2013-04-09 17:20:00,46.2,45.7,29.90,ESE,112,12.0,18.0,98,0.25,,,-99.99,WeatherLink 5.4,2013-04-09 21:20:00,
2013-04-09 17:30:00,46.2,45.7,29.91,East,90,12.0,18.0,98,0.27,,,-99.99,WeatherLink 5.4,2013-04-09 21:30:00,
2013-04-09 17:40:00,46.1,45.6,29.91,East,90,10.0,15.0,98,0.27,,,-99.99,WeatherLink 5.4,2013-04-09 21:40:00,
2013-04-09 17:50:00,46.1,45.6,29.89,ESE,112,10.0,14.0,98,0.25,,,-99.99,WeatherLink 5.4,2013-04-09 21:50:00,
2013-04-09 18:00:00,46.2,45.7,29.93,NNW,337,8.0,11.0,98,0.21,,,-99.99,WeatherLink 5.4,2013-04-09 22:00:00,
2013-04-09 18:10:00,46.3,45.8,29.94,North,0,7.0,12.0,98,0.07,,,-99.99,WeatherLink 5.4,2013-04-09 22:10:00,
2013-04-09 18:20:00,46.3,45.8,29.94,North,0,6.0,10.0,98,0.06,,,-99.99,WeatherLink 5.4,2013-04-09 22:20:00,
2013-04-09 18:30:00,46.4,45.9,29.94,NNE,22,8.0,12.0,98,0.05,,,-99.99,WeatherLink 5.4,2013-04-09 22:30:00,
2013-04-09 18:40:00,46.3,45.8,29.94,NNE,22,8.0,13.0,98,0.05,,,-99.99,WeatherLink 5.4,2013-04-09 22:40:00,
2013-04-09 18:50:00,46.0,45.5,29.96,North,0,8.0,15.0,98,0.05,,,-99.99,WeatherLink 5.4,2013-04-09 22:50:00,
2013-04-09 19:00:00,45.7,45.2,29.95,North,0,9.0,15.0,98,0.06,,,-99.99,WeatherLink 5.4,2013-04-09 23:00:00,
2013-04-09 19:10:00,45.6,45.1,29.95,NNE,22,9.0,13.0,98,0.15,,,-99.99,WeatherLink 5.4,2013-04-09 23:10:00,
2013-04-09 19:20:00,45.5,45.0,29.95,NNE,22,9.0,16.0,98,0.29,,,-99.99,WeatherLink 5.4,2013-04-09 23:20:00,
2013-04-09 19:30:00,45.5,45.0,29.97,North,0,10.0,16.0,98,0.29,,,-99.99,WeatherLink 5.4,2013-04-09 23:30:00,
2013-04-09 19:40:00,45.4,44.9,29.96,North,0,9.0,14.0,98,0.33,,,-99.99,WeatherLink 5.4,2013-04-09 23:40:00,
2013-04-09 19:50:00,45.3,44.8,29.96,NNE,22,9.0,15.0,98,0.39,,,-99.99,WeatherLink 5.4,2013-04-09 23:50:00,
2013-04-09 20:00:00,45.1,44.6,29.96,East,90,11.0,18.0,98,0.40,,,-99.99,WeatherLink 5.4,2013-04-10 00:00:00,
2013-04-09 20:10:00,45.0,44.5,29.97,NNE,22,10.0,15.0,98,0.32,,,-99.99,WeatherLink 5.4,2013-04-10 00:10:00,
2013-04-09 20:20:00,44.7,44.2,29.98,NNE,22,10.0,18.0,98,0.18,,,-99.99,WeatherLink 5.4,2013-04-10 00:20:00,
2013-04-09 20:30:00,44.4,43.9,29.98,NNE,22,9.0,15.0,98,0.18,,,-99.99,WeatherLink 5.4,2013-04-10 00:30:00,
2013-04-09 20:40:00,43.7,43.2,29.99,NNE,22,10.0,19.0,98,0.14,,,-99.99,WeatherLink 5.4,2013-04-10 00:40:00,
2013-04-09 20:50:00,43.2,42.7,29.98,NNE,22,10.0,21.0,98,0.08,,,-99.99,WeatherLink 5.4,2013-04-10 00:50:00,
2013-04-09 21:00:00,42.9,42.4,29.98,NNE,22,10.0,16.0,98,0.06,,,-99.99,WeatherLink 5.4,2013-04-10 01:00:00,
2013-04-09 21:10:00,42.5,42.0,29.98,East,90,13.0,20.0,98,0.03,,,-99.99,WeatherLink 5.4,2013-04-10 01:10:00,
2013-04-09 21:20:00,42.3,41.8,29.99,East,90,9.0,16.0,98,0.01,,,-99.99,WeatherLink 5.4,2013-04-10 01:20:00,
2013-04-09 21:30:00,42.0,41.5,30.00,NE,45,9.0,14.0,98,0.00,,,-99.99,WeatherLink 5.4,2013-04-10 01:30:00,
2013-04-09 21:40:00,41.8,41.3,30.00,East,90,12.0,20.0,98,0.00,,,-99.99,WeatherLink 5.4,2013-04-10 01:40:00,
2013-04-09 21:50:00,41.5,41.0,30.00,East,90,16.0,24.0,98,0.00,,,-99.99,WeatherLink 5.4,2013-04-10 01:50:00,
2013-04-09 22:00:00,41.5,41.0,30.01,East,90,15.0,22.0,98,0.00,,,-99.99,WeatherLink 5.4,2013-04-10 02:00:00,
2013-04-09 22:10:00,41.5,41.0,30.01,East,90,15.0,22.0,98,0.00,,,-99.99,WeatherLink 5.4,2013-04-10 02:10:00,
2013-04-09 22:20:00,41.5,41.0,30.03,East,90,12.0,21.0,98,0.00,,,-99.99,WeatherLink 5.4,2013-04-10 02:20:00,
2013-04-09 22:30:00,41.5,41.0,30.02,East,90,14.0,22.0,98,0.00,,,-99.99,WeatherLink 5.4,2013-04-10 02:30:00,
2013-04-09 22:40:00,41.5,41.0,30.03,East,90,11.0,21.0,98,0.01,,,-99.99,WeatherLink 5.4,2013-04-10 02:40:00,
2013-04-09 22:50:00,41.5,41.0,30.04,East,90,11.0,20.0,98,0.01,,,-99.99,WeatherLink 5.4,2013-04-10 02:50:00,
2013-04-09 23:00:00,41.5,41.0,30.03,East,90,13.0,20.0,98,0.01,,,-99.99,WeatherLink 5.4,2013-04-10 03:00:00,
2013-04-09 23:10:00,41.4,40.9,30.02,East,90,15.0,22.0,98,0.01,,,-99.99,WeatherLink 5.4,2013-04-10 03:10:00,
2013-04-09 23:20:00,41.3,40.5,30.02,East,90,14.0,21.0,97,0.01,,,-99.99,WeatherLink 5.4,2013-04-10 03:20:00,
2013-04-09 23:30:00,41.2,40.4,30.02,East,90,12.0,22.0,97,0.01,,,-99.99,WeatherLink 5.4,2013-04-10 03:30:00,
2013-04-09 23:40:00,41.1,40.6,30.02,East,90,10.0,18.0,98,0.00,,,-99.99,WeatherLink 5.4,2013-04-10 03:40:00,
2013-04-09 23:50:00,41.1,40.6,30.02,East,90,12.0,19.0,98,0.00,,,-99.99,WeatherLink 5.4,2013-04-10 03:50:00,